Indian Mountain Lrrs Airport
PAIM : now visible

Airfield :











YOU CAN JOIN US ON...

 
LOGIN :

Register | Disclaimer

   EN    FR    IT 

 









Legend :    VFR   Marginal VFR   IFR   Intensive IFR   Very Intensive IFR
Visi :
Ceiling :
>= 8 km
>= 3000ft
5 to 8 km
1000 to 3000 ft
1500m to 5 km
500 to 1000 ft
800 to 1500m
200 to 500 ft
< 800m
< 200 ft
Symbols :   Thunderstorms  Fog  Heavy snow  Heavy precipitations  Wind > 20 kt






- Airport Elevation : 1273 ft
- IATA code : UTO


PAIM - Indian Mountain Lrrs

CURRENT METAR :
  • 270255Z AUTO 26006KT 10SM CLR M02/M04 A2962 RMK AO2 SLP052 T10251042 52020

EXPIRED METARs :
  • 270214Z AUTO 27004KT 10SM FEW027 M02/M04 A2961 RMK AO2 SLP045
  • 270155Z AUTO 26005KT 10SM CLR M02/M04 A2960 RMK AO2 SLP045 T10201041
  • 270055Z AUTO 25006KT 10SM SCT042 00/M04 A2958 RMK AO2 SLP036 T10051044

Expired Forecast.
PAZA FIR / North America



MET'MAP, your aeronautical weather chart ! - Copyright ORBIFLY December 2007 - Disclaimer

ORBIFLY MET'MAP TEAM :

Programming & Development : Alexandra Zaïnal
Concept & original design : Baudouin d'Aumeries
Assistance for programming : Marc-Olivier Méhu
Technical & hardware support : Manuel Goepfert

Contact : metmap@orbifly.com




SOURCES & CREDITS :

   NOAA       Earth
Advisory